Time;durP1;ratioP1;P1;durP2;ratioP2;P2;SDS_P1;SDS_P2;PMS_P1;PMS_P2;Temp;Humidity;BMP_temperature;BMP_pressure;BME280_temperature;BME280_humidity;BME280_pressure;Samples;Min_cycle;Max_cycle;Signal;HPM_P1;HPM_P2
2023/08/03 00:00:20;;;;;;;;;;;;;;;23.37;88.33;100077.91;5088280;28;19954;-79
2023/08/03 00:02:45;;;;;;;;;;;;;;;23.40;89.34;100080.25;5088484;28;19912;-79
2023/08/03 00:05:11;;;;;;;;;;;;;;;23.39;90.66;100073.94;5088295;28;20113;-81
2023/08/03 00:07:36;;;;;;;;;;;;;;;23.40;92.40;100081.09;5088122;28;19912;-79
2023/08/03 00:10:01;;;;;;;;;;;;;;;23.39;92.49;100079.44;5087996;28;20444;-78
2023/08/03 00:12:27;;;;;;;;;;;;;;;23.45;93.24;100072.22;5088491;28;19974;-79
2023/08/03 00:14:52;;;;;;;;;;;;;;;23.45;92.85;100073.06;5088544;28;19995;-81
2023/08/03 00:17:17;;;;;;;;;;;;;;;23.49;91.40;100073.44;5088566;28;19912;-78
2023/08/03 00:19:43;;;;;;;;;;;;;;;23.47;90.85;100076.41;5088055;28;20011;-78
2023/08/03 00:22:09;;;;;;;;;;;;;;;23.50;90.88;100075.13;5088521;28;19926;-78
2023/08/03 00:24:34;;;;;;;;;;;;;;;23.50;90.94;100070.50;5088110;28;19920;-81
2023/08/03 00:26:59;;;;;;;;;;;;;;;23.48;90.21;100055.31;5088880;28;20353;-80
2023/08/03 00:29:25;;;;;;;;;;;;;;;23.63;88.70;100064.06;5089481;28;20038;-79
2023/08/03 00:31:50;;;;;;;;;;;;;;;23.57;87.85;100070.44;5091539;28;19919;-80
2023/08/03 00:34:15;;;;;;;;;;;;;;;23.60;87.58;100070.00;5094094;28;19919;-79
2023/08/03 00:36:40;;;;;;;;;;;;;;;23.59;87.96;100058.16;5099654;28;19912;-79
2023/08/03 00:39:06;;;;;;;;;;;;;;;23.55;87.80;100062.41;5095624;28;20303;-78
2023/08/03 00:41:31;;;;;;;;;;;;;;;23.59;87.33;100063.66;5090847;28;19912;-78
2023/08/03 00:43:57;;;;;;;;;;;;;;;23.60;86.17;100070.84;5088123;28;19912;-78
2023/08/03 00:46:22;;;;;;;;;;;;;;;23.60;85.42;100064.50;5090566;28;20007;-80
2023/08/03 00:48:47;;;;;;;;;;;;;;;23.60;84.26;100065.34;5090472;28;19969;-79
2023/08/03 00:51:13;;;;;;;;;;;;;;;23.64;84.15;100065.72;5090340;28;19912;-79
2023/08/03 00:53:38;;;;;;;;;;;;;;;23.64;84.67;100063.81;5089358;28;19912;-83
2023/08/03 00:56:03;;;;;;;;;;;;;;;23.64;85.47;100061.06;5090110;28;20344;-78
2023/08/03 00:58:29;;;;;;;;;;;;;;;23.61;86.26;100053.28;5090682;28;19919;-80
2023/08/03 01:00:54;;;;;;;;;;;;;;;23.62;85.93;100057.72;5089523;28;19912;-79
2023/08/03 01:03:19;;;;;;;;;;;;;;;23.64;84.50;100061.06;5090285;28;20405;-82
2023/08/03 01:05:45;;;;;;;;;;;;;;;23.64;84.98;100060.22;5090778;28;19931;-78
2023/08/03 01:08:10;;;;;;;;;;;;;;;23.57;85.14;100059.47;5089428;28;19920;-81
2023/08/03 01:10:35;;;;;;;;;;;;;;;23.52;84.71;100057.38;5089654;28;19976;-79
2023/08/03 01:13:01;;;;;;;;;;;;;;;23.51;85.38;100054.88;5087193;28;19955;-79
2023/08/03 01:15:26;;;;;;;;;;;;;;;23.46;85.23;100058.25;5089465;28;20322;-80
2023/08/03 01:17:51;;;;;;;;;;;;;;;23.47;83.62;100056.34;5089253;28;19923;-79
2023/08/03 01:20:18;;;;;;;;;;;;;;;23.44;84.16;100059.56;5089844;28;19912;-82
2023/08/03 01:22:43;;;;;;;;;;;;;;;23.46;84.35;100062.91;5089168;28;19916;-79
2023/08/03 01:25:09;;;;;;;;;;;;;;;23.45;84.42;100059.34;5110090;28;19922;-78
2023/08/03 01:27:34;;;;;;;;;;;;;;;23.44;83.79;100054.06;5110040;28;19919;-79
2023/08/03 01:30:01;;;;;;;;;;;;;;;23.46;83.70;100066.50;5113067;28;19912;-81
2023/08/03 01:32:26;;;;;;;;;;;;;;;23.37;83.97;100064.19;5112870;28;19916;-78
2023/08/03 01:34:52;;;;;;;;;;;;;;;23.40;83.73;100058.31;5110940;28;19912;-78
2023/08/03 01:37:20;;;;;;;;;;;;;;;23.42;83.27;100056.19;5110698;28;20414;-80
2023/08/03 01:39:45;;;;;;;;;;;;;;;23.38;84.28;100054.91;5111136;28;19941;-79
2023/08/03 01:42:14;;;;;;;;;;;;;;;23.35;84.78;100071.81;5110904;28;19919;-79
2023/08/03 01:44:40;;;;;;;;;;;;;;;23.33;86.03;100064.63;5111093;28;19919;-79
2023/08/03 01:47:05;;;;;;;;;;;;;;;23.32;86.78;100062.13;5110975;28;20303;-77
2023/08/03 01:49:31;;;;;;;;;;;;;;;23.32;88.07;100062.13;5111099;28;19963;-79
2023/08/03 01:51:56;;;;;;;;;;;;;;;23.28;89.12;100077.34;5110767;28;19966;-81
2023/08/03 01:54:22;;;;;;;;;;;;;;;23.27;91.62;100075.69;5110819;28;19980;-81
2023/08/03 01:56:47;;;;;;;;;;;;;;;23.21;92.33;100082.03;5110632;28;19912;-82
2023/08/03 01:59:12;;;;;;;;;;;;;;;23.21;94.06;100093.00;5110648;28;20290;-82
2023/08/03 02:01:38;;;;;;;;;;;;;;;23.18;95.16;100098.94;5094007;28;19938;-82
2023/08/03 02:04:03;;;;;;;;;;;;;;;23.14;96.53;100098.56;5114310;28;19919;-81
2023/08/03 02:06:29;;;;;;;;;;;;;;;23.11;97.20;100098.16;5114395;28;20307;-81
2023/08/03 02:08:54;;;;;;;;;;;;;;;23.12;98.78;100108.88;5114703;28;20720;-83
2023/08/03 02:11:19;;;;;;;;;;;;;;;23.08;99.44;100110.41;5115525;28;19915;-82
2023/08/03 02:13:44;;;;;;;;;;;;;;;23.04;100.00;100103.66;5115718;28;19912;-81
2023/08/03 02:16:10;;;;;;;;;;;;;;;23.02;100.00;100104.94;5114826;28;19916;-81
2023/08/03 02:18:41;;;;;;;;;;;;;;;23.03;100.00;100107.44;5115161;28;20444;-80
2023/08/03 02:21:07;;;;;;;;;;;;;;;23.09;100.00;100113.97;5115904;28;20302;-80
2023/08/03 02:23:32;;;;;;;;;;;;;;;23.07;100.00;100116.94;5114730;28;20014;-83
2023/08/03 02:25:58;;;;;;;;;;;;;;;23.03;100.00;100118.41;5099130;28;19991;-78
2023/08/03 02:28:23;;;;;;;;;;;;;;;23.03;100.00;100118.41;5107887;28;20014;-78
2023/08/03 02:30:49;;;;;;;;;;;;;;;22.95;100.00;100113.19;5099062;28;19919;-81
2023/08/03 02:33:14;;;;;;;;;;;;;;;22.92;100.00;100115.53;5076074;28;19912;-80
2023/08/03 02:35:39;;;;;;;;;;;;;;;22.86;100.00;100113.66;5093420;28;20386;-81
2023/08/03 02:38:05;;;;;;;;;;;;;;;22.72;100.00;100107.34;5091272;28;20386;-78
2023/08/03 02:40:30;;;;;;;;;;;;;;;22.72;100.00;100110.94;5090914;28;20011;-80
2023/08/03 02:42:55;;;;;;;;;;;;;;;22.76;98.76;100103.13;5091625;28;19916;-81
2023/08/03 02:45:21;;;;;;;;;;;;;;;22.81;96.29;100099.75;5090583;28;19908;-79
2023/08/03 02:47:46;;;;;;;;;;;;;;;22.74;95.03;100103.38;5074146;28;20013;-85
2023/08/03 02:50:11;;;;;;;;;;;;;;;22.68;93.67;100106.97;5090386;28;20070;-80
2023/08/03 02:52:37;;;;;;;;;;;;;;;22.69;92.81;100105.88;5090548;28;19969;-79
2023/08/03 02:55:02;;;;;;;;;;;;;;;22.67;90.58;100108.03;5091131;28;19919;-80
2023/08/03 02:57:27;;;;;;;;;;;;;;;22.65;87.17;100109.28;5090965;28;19935;-83
2023/08/03 02:59:52;;;;;;;;;;;;;;;22.65;86.48;100114.78;5090217;28;19969;-78
2023/08/03 03:02:18;;;;;;;;;;;;;;;22.69;87.86;100114.13;5106243;28;19919;-79
2023/08/03 03:04:43;;;;;;;;;;;;;;;22.70;90.18;100117.72;5113274;28;19954;-81
2023/08/03 03:07:08;;;;;;;;;;;;;;;22.65;89.60;100121.09;5112945;28;19983;-82
2023/08/03 03:09:34;;;;;;;;;;;;;;;22.63;87.17;100117.69;5112975;28;19923;-80
2023/08/03 03:11:59;;;;;;;;;;;;;;;22.66;85.09;100110.97;5112145;28;19912;-81
2023/08/03 03:14:24;;;;;;;;;;;;;;;22.69;83.83;100111.38;5113214;28;19911;-79
2023/08/03 03:16:50;;;;;;;;;;;;;;;22.73;85.12;100117.28;5095197;28;19922;-80
2023/08/03 03:19:15;;;;;;;;;;;;;;;22.75;83.47;100112.44;5116453;28;19988;-84
2023/08/03 03:21:40;;;;;;;;;;;;;;;22.81;82.67;100124.44;5123525;28;19987;-83
2023/08/03 03:24:05;;;;;;;;;;;;;;;22.76;81.55;100134.16;5123906;28;19919;-82
2023/08/03 03:26:31;;;;;;;;;;;;;;;22.82;80.79;100131.59;5124818;28;19941;-80
2023/08/03 03:28:56;;;;;;;;;;;;;;;22.86;81.57;100138.31;5133802;28;19968;-84
2023/08/03 03:31:21;;;;;;;;;;;;;;;22.94;83.10;100125.22;5135444;28;19911;-83
2023/08/03 03:33:47;;;;;;;;;;;;;;;22.96;83.57;100131.34;5136660;28;19917;-84
2023/08/03 03:36:12;;;;;;;;;;;;;;;22.94;82.18;100135.34;5136425;28;19924;-80
2023/08/03 03:38:38;;;;;;;;;;;;;;;22.95;81.14;100131.53;5135106;28;19908;-82
2023/08/03 03:41:04;;;;;;;;;;;;;;;22.95;81.16;100131.53;5114095;28;20111;-77
2023/08/03 03:43:29;;;;;;;;;;;;;;;23.01;81.81;100138.91;5112702;28;20356;-79
2023/08/03 03:45:54;;;;;;;;;;;;;;;23.01;80.95;100131.53;5095472;28;20382;-78
2023/08/03 03:48:20;;;;;;;;;;;;;;;23.02;80.42;100126.88;5113285;28;19955;-76
2023/08/03 03:50:45;;;;;;;;;;;;;;;23.09;80.71;100133.16;5114429;28;20267;-77
2023/08/03 03:53:10;;;;;;;;;;;;;;;23.09;80.75;100138.66;5096295;28;20208;-78
2023/08/03 03:55:35;;;;;;;;;;;;;;;23.15;81.40;100138.63;5113003;28;19915;-77
2023/08/03 03:58:02;;;;;;;;;;;;;;;23.19;81.73;100139.88;5112122;28;19924;-77
2023/08/03 04:00:28;;;;;;;;;;;;;;;23.19;80.54;100144.53;5112107;28;20386;-77
2023/08/03 04:02:53;;;;;;;;;;;;;;;23.28;82.42;100148.69;5111632;28;19912;-77
2023/08/03 04:05:18;;;;;;;;;;;;;;;23.33;81.61;100151.66;5111056;28;19999;-79
2023/08/03 04:07:43;;;;;;;;;;;;;;;23.38;79.93;100149.06;5111727;28;19916;-79
2023/08/03 04:10:09;;;;;;;;;;;;;;;23.41;79.10;100143.19;5093045;28;19915;-77
2023/08/03 04:12:34;;;;;;;;;;;;;;;23.45;78.69;100146.34;5112476;28;19923;-81
2023/08/03 04:14:59;;;;;;;;;;;;;;;23.46;78.79;100150.75;5112235;28;19938;-79
2023/08/03 04:17:25;;;;;;;;;;;;;;;23.48;79.88;100145.88;5116122;28;19960;-86
2023/08/03 04:19:50;;;;;;;;;;;;;;;23.46;79.80;100154.34;5118466;28;19908;-94
2023/08/03 04:22:15;;;;;;;;;;;;;;;23.49;79.84;100145.66;5116268;28;19916;-92
2023/08/03 04:24:41;;;;;;;;;;;;;;;23.51;79.83;100146.31;5106329;28;19955;-92
2023/08/03 04:27:06;;;;;;;;;;;;;;;23.60;82.81;100153.22;5097002;28;19911;-92
2023/08/03 04:29:31;;;;;;;;;;;;;;;23.60;80.90;100147.72;5097734;28;19919;-93
2023/08/03 04:31:57;;;;;;;;;;;;;;;23.64;80.79;100154.44;5098162;28;19943;-93
2023/08/03 04:34:23;;;;;;;;;;;;;;;23.70;82.03;100158.19;5097366;28;19956;-93
2023/08/03 04:36:48;;;;;;;;;;;;;;;23.73;81.84;100157.75;5097408;28;20712;-93
2023/08/03 04:39:13;;;;;;;;;;;;;;;23.79;83.83;100167.88;5097838;28;20294;-92
2023/08/03 04:41:39;;;;;;;;;;;;;;;23.76;82.66;100171.88;5115557;28;20287;-93
2023/08/03 04:44:04;;;;;;;;;;;;;;;23.80;83.73;100170.38;5095023;28;20002;-83
2023/08/03 04:46:29;;;;;;;;;;;;;;;23.89;84.02;100175.59;5111759;28;19912;-78
2023/08/03 04:48:55;;;;;;;;;;;;;;;23.93;84.85;100179.59;5110693;28;19923;-77
2023/08/03 04:51:20;;;;;;;;;;;;;;;23.91;82.29;100176.25;5112946;28;20355;-84
2023/08/03 04:53:45;;;;;;;;;;;;;;;23.96;84.18;100179.16;5095237;28;20364;-84
2023/08/03 04:56:11;;;;;;;;;;;;;;;23.95;83.08;100180.22;5094470;28;20389;-85
2023/08/03 04:58:36;;;;;;;;;;;;;;;23.97;83.73;100180.84;5111563;28;19926;-81
2023/08/03 05:01:01;;;;;;;;;;;;;;;24.07;86.29;100186.66;5092399;28;19911;-77
2023/08/03 05:03:27;;;;;;;;;;;;;;;24.05;85.33;100184.16;5110883;28;19961;-85
2023/08/03 05:05:52;;;;;;;;;;;;;;;24.14;85.45;100187.50;5112055;28;19919;-81
2023/08/03 05:08:17;;;;;;;;;;;;;;;24.19;84.75;100193.16;5112680;28;19933;-80
2023/08/03 05:10:43;;;;;;;;;;;;;;;24.23;83.08;100197.16;5112525;28;19934;-81
2023/08/03 05:13:08;;;;;;;;;;;;;;;24.31;83.71;100188.66;5113965;28;19911;-80
2023/08/03 05:15:33;;;;;;;;;;;;;;;24.36;81.49;100197.03;5123543;28;19912;-80
2023/08/03 05:18:01;;;;;;;;;;;;;;;24.37;81.58;100199.56;5117415;28;19916;-80
2023/08/03 05:20:27;;;;;;;;;;;;;;;24.40;82.19;100203.78;5111660;28;19919;-80
2023/08/03 05:22:52;;;;;;;;;;;;;;;24.45;83.71;100201.19;5111202;28;19912;-79
2023/08/03 05:25:17;;;;;;;;;;;;;;;24.54;85.49;100199.84;5110657;28;19911;-82
2023/08/03 05:27:43;;;;;;;;;;;;;;;24.57;81.48;100204.88;5111461;28;19911;-78
2023/08/03 05:30:08;;;;;;;;;;;;;;;24.68;82.62;100206.88;5110636;28;19918;-79
2023/08/03 05:32:33;;;;;;;;;;;;;;;24.76;80.53;100205.75;5110779;28;19919;-80
2023/08/03 05:34:59;;;;;;;;;;;;;;;24.79;81.32;100206.16;5110312;28;19922;-80
2023/08/03 05:37:25;;;;;;;;;;;;;;;24.83;80.51;100210.16;5114162;28;19911;-83
2023/08/03 05:39:50;;;;;;;;;;;;;;;24.92;81.36;100207.13;5114909;28;19913;-80
2023/08/03 05:42:16;;;;;;;;;;;;;;;25.02;82.11;100210.16;5116698;28;19915;-81
2023/08/03 05:44:42;;;;;;;;;;;;;;;25.14;82.11;100211.06;5116749;28;19912;-78
2023/08/03 05:47:09;;;;;;;;;;;;;;;25.28;82.74;100209.88;5116792;28;19919;-81
2023/08/03 05:49:34;;;;;;;;;;;;;;;25.38;81.61;100207.41;5114107;28;20015;-80
2023/08/03 05:52:00;;;;;;;;;;;;;;;25.49;81.00;100209.41;5113688;28;19954;-78
2023/08/03 05:54:25;;;;;;;;;;;;;;;25.58;81.11;100202.50;5113728;28;19911;-82
2023/08/03 05:56:51;;;;;;;;;;;;;;;25.73;82.25;100211.19;5113673;28;19992;-82
2023/08/03 05:59:21;;;;;;;;;;;;;;;25.81;81.34;100207.25;5115320;28;19926;-81
2023/08/03 06:01:50;;;;;;;;;;;;;;;25.93;82.11;100197.97;5113712;28;19920;-79
2023/08/03 06:04:18;;;;;;;;;;;;;;;26.01;77.88;100195.94;5114584;28;19912;-93
2023/08/03 06:06:44;;;;;;;;;;;;;;;26.15;79.64;100187.25;5115384;28;20430;-77
2023/08/03 06:09:13;;;;;;;;;;;;;;;26.25;79.80;100201.31;5116935;28;20436;-78
2023/08/03 06:11:39;;;;;;;;;;;;;;;26.39;79.72;100193.69;5105492;28;19911;-79
2023/08/03 06:14:05;;;;;;;;;;;;;;;26.46;77.16;100205.41;5119094;28;20440;-79
2023/08/03 06:16:30;;;;;;;;;;;;;;;26.53;77.05;100200.63;5113519;28;19916;-77
2023/08/03 06:18:58;;;;;;;;;;;;;;;26.65;77.47;100206.16;5113333;28;19912;-77
2023/08/03 06:21:24;;;;;;;;;;;;;;;26.67;73.99;100202.06;5113346;28;19919;-80
2023/08/03 06:23:51;;;;;;;;;;;;;;;26.81;75.79;100206.31;5113538;28;20038;-76
2023/08/03 06:26:17;;;;;;;;;;;;;;;26.85;72.35;100210.25;5094647;28;20298;-76
2023/08/03 06:28:43;;;;;;;;;;;;;;;26.99;73.99;100210.84;5113478;28;19955;-81
2023/08/03 06:31:19;;;;;;;;;;;;;;;27.03;73.38;100212.88;5113656;28;20343;-78
2023/08/03 06:33:45;;;;;;;;;;;;;;;27.10;72.08;100223.78;5113506;28;19926;-77
2023/08/03 06:36:12;;;;;;;;;;;;;;;27.13;68.91;100227.97;5113138;28;19912;-77
2023/08/03 06:38:38;;;;;;;;;;;;;;;27.25;69.79;100209.47;5113715;28;19951;-82
2023/08/03 06:41:03;;;;;;;;;;;;;;;27.22;64.85;100210.78;5112848;28;19958;-80
2023/08/03 06:43:30;;;;;;;;;;;;;;;27.16;68.09;100216.44;5112903;28;19912;-86
2023/08/03 06:45:55;;;;;;;;;;;;;;;26.99;65.68;100206.16;5112526;28;19972;-79
2023/08/03 06:48:21;;;;;;;;;;;;;;;26.70;60.68;100207.09;5111656;28;19911;-81
2023/08/03 06:50:46;;;;;;;;;;;;;;;26.60;63.73;100206.88;5114444;28;20295;-82
2023/08/03 06:53:12;;;;;;;;;;;;;;;26.48;67.61;100212.38;5114495;28;19908;-82
2023/08/03 06:55:37;;;;;;;;;;;;;;;26.36;70.21;100202.44;5114308;28;19912;-80
2023/08/03 06:58:03;;;;;;;;;;;;;;;26.10;66.92;100208.31;5114180;28;19919;-79
2023/08/03 07:00:28;;;;;;;;;;;;;;;25.93;62.24;100208.97;5114595;28;20014;-77
2023/08/03 07:02:54;;;;;;;;;;;;;;;25.82;61.91;100220.81;5113274;28;19918;-77
2023/08/03 07:05:19;;;;;;;;;;;;;;;25.84;65.18;100213.16;5113986;28;19937;-83
2023/08/03 07:07:44;;;;;;;;;;;;;;;25.74;61.93;100215.66;5108445;27;19916;-78
2023/08/03 07:10:47;;;;;;;16.17;8.38;;;;;;;25.62;65.15;100214.75;5265321;22;20375;-86
2023/08/03 07:13:13;;;;;;;27.67;9.32;;;;;;;25.63;69.96;100208.16;5060373;28;20051;-88
2023/08/03 07:16:31;;;;;;;23.13;8.15;;;;;;;25.64;60.72;100212.59;5064291;27;20413;-83
2023/08/03 07:18:57;;;;;;;13.05;7.10;;;;;;;25.73;58.54;100216.72;5060176;28;20499;-84
2023/08/03 07:21:22;;;;;;;33.88;9.50;;;;;;;25.72;58.80;100226.03;5068650;28;20052;-84
2023/08/03 07:23:48;;;;;;;31.77;9.27;;;;;;;25.58;57.14;100210.78;5066716;28;20044;-78
2023/08/03 07:26:15;;;;;;;14.88;6.95;;;;;;;25.61;56.75;100218.56;5067185;28;20028;-79
2023/08/03 07:28:40;;;;;;;21.08;7.00;;;;;;;25.73;57.89;100230.47;5067287;28;20031;-79
2023/08/03 07:31:12;;;;;;;66.47;13.95;;;;;;;25.76;57.52;100232.78;5067099;28;20442;-79
2023/08/03 07:33:38;;;;;;;;;;;;;;;25.94;56.58;100235.47;5067862;28;20052;-79
2023/08/03 07:36:04;;;;;;;10.07;6.15;;;;;;;25.73;56.47;100222.22;5067064;28;19948;-79
2023/08/03 07:38:29;;;;;;;15.90;6.88;;;;;;;25.92;55.22;100232.13;5068061;28;20032;-81
2023/08/03 07:40:54;;;;;;;16.05;6.22;;;;;;;25.71;55.56;100224.38;5066811;28;20090;-80
2023/08/03 07:43:20;;;;;;;10.48;5.88;;;;;;;25.94;54.30;100238.22;5067559;28;20037;-80
2023/08/03 07:45:45;;;;;;;32.10;8.30;;;;;;;25.95;55.27;100234.41;5067476;28;20100;-80
2023/08/03 07:48:11;;;;;;;7.25;5.38;;;;;;;26.23;52.97;100222.78;5067417;28;20075;-80
2023/08/03 07:50:36;;;;;;;18.58;6.63;;;;;;;26.34;53.82;100229.38;5067530;28;20025;-80
2023/08/03 07:53:03;;;;;;;14.35;6.82;;;;;;;26.18;54.44;100222.63;5067664;28;20373;-80
2023/08/03 07:55:32;;;;;;;17.25;7.32;;;;;;;26.22;54.62;100242.31;5067077;28;20035;-80
2023/08/03 07:57:57;;;;;;;16.27;6.65;;;;;;;26.14;52.83;100217.81;5067647;28;20032;-82
2023/08/03 08:00:23;;;;;;;16.67;6.63;;;;;;;26.29;54.04;100223.75;5068315;28;20100;-80
2023/08/03 08:02:48;;;;;;;16.45;6.10;;;;;;;26.35;54.26;100220.88;5068255;28;20036;-79
2023/08/03 08:05:13;;;;;;;27.38;7.07;;;;;;;26.24;54.33;100223.59;5067353;28;20115;-80
2023/08/03 08:07:39;;;;;;;9.25;5.63;;;;;;;26.20;54.66;100220.50;5069532;28;20025;-81
2023/08/03 08:10:05;;;;;;;24.02;6.55;;;;;;;26.32;55.38;100228.78;5073813;28;20036;-82
2023/08/03 08:12:30;;;;;;;14.70;5.90;;;;;;;26.54;54.36;100231.81;5073080;28;20033;-79
2023/08/03 08:14:56;;;;;;;14.63;5.80;;;;;;;26.46;52.79;100227.47;5076613;28;20136;-80
2023/08/03 08:17:21;;;;;;;9.48;5.85;;;;;;;26.41;52.68;100230.13;5091510;28;20005;-84
2023/08/03 08:19:46;;;;;;;10.70;6.55;;;;;;;26.49;54.79;100225.09;5091570;28;20025;-81
2023/08/03 08:22:12;;;;;;;19.08;7.88;;;;;;;26.55;55.79;100226.06;5087836;28;20356;-83
2023/08/03 08:24:37;;;;;;;17.30;7.40;;;;;;;26.66;54.89;100222.47;5076186;28;20495;-79
2023/08/03 08:27:03;;;;;;;20.02;7.50;;;;;;;26.69;55.40;100238.56;5067767;28;20086;-78
2023/08/03 08:29:29;;;;;;;12.02;6.63;;;;;;;26.73;55.21;100234.22;5064603;28;20021;-80
2023/08/03 08:31:54;;;;;;;19.83;5.88;;;;;;;26.78;53.68;100220.56;5058642;28;20054;-79
2023/08/03 08:34:19;;;;;;;19.13;6.03;;;;;;;26.88;55.34;100234.59;5059355;28;20040;-79
2023/08/03 08:36:45;;;;;;;14.70;6.97;;;;;;;27.00;55.18;100237.38;5056961;28;20029;-79
2023/08/03 08:39:10;;;;;;;17.30;7.72;;;;;;;27.09;56.49;100232.31;5056873;28;20459;-79
2023/08/03 08:41:40;;;;;;;18.33;7.05;;;;;;;27.23;56.16;100230.97;5054671;28;20029;-82
2023/08/03 08:44:06;;;;;;;14.63;7.05;;;;;;;27.16;55.51;100210.91;5054127;28;20029;-80
2023/08/03 08:46:32;;;;;;;22.67;9.05;;;;;;;27.29;56.94;100227.22;5053379;28;20060;-80
2023/08/03 08:48:58;;;;;;;17.75;10.13;;;;;;;27.41;59.53;100230.81;5053482;28;20021;-81
2023/08/03 08:51:25;;;;;;;22.40;8.27;;;;;;;27.49;63.27;100233.25;5054281;28;20028;-80
2023/08/03 08:53:54;;;;;;;23.55;8.93;;;;;;;27.45;58.92;100232.03;5052781;28;20104;-80
2023/08/03 08:56:19;;;;;;;36.05;7.88;;;;;;;27.35;57.69;100221.59;5052603;28;20069;-81
2023/08/03 08:58:45;;;;;;;22.05;8.38;;;;;;;27.42;58.47;100232.50;5052514;28;20067;-78
2023/08/03 09:01:10;;;;;;;18.05;11.38;;;;;;;27.43;64.39;100223.16;5052453;28;20032;-79
2023/08/03 09:03:51;;;;;;;21.95;9.77;;;;;;;27.47;66.31;100222.41;5052330;28;20151;-82
2023/08/03 09:06:18;;;;;;;29.45;9.15;;;;;;;27.49;64.56;100228.53;5052518;28;20487;-80
2023/08/03 09:08:54;;;;;;;25.05;8.13;;;;;;;27.39;65.13;100230.22;5051867;28;20135;-81
2023/08/03 09:11:40;;;;;;;23.27;9.40;;;;;;;27.38;66.83;100242.34;5052175;28;20057;-80
2023/08/03 09:14:07;;;;;;;17.35;8.43;;;;;;;27.32;66.41;100237.78;5049888;28;20098;-80
2023/08/03 09:16:32;;;;;;;46.45;10.18;;;;;;;27.11;65.94;100232.91;5051656;28;20495;-81
2023/08/03 09:18:58;;;;;;;16.17;8.52;;;;;;;27.21;64.80;100239.50;5051867;28;20021;-81
2023/08/03 09:21:23;;;;;;;22.77;8.40;;;;;;;26.98;65.07;100231.25;5051932;28;20028;-80
2023/08/03 09:23:49;;;;;;;22.50;8.30;;;;;;;26.93;67.22;100240.25;5051351;28;20069;-81
2023/08/03 09:26:22;;;;;;;18.02;7.75;;;;;;;26.97;68.13;100248.91;5051706;28;20099;-79
2023/08/03 09:28:48;;;;;;;12.68;8.40;;;;;;;26.97;69.16;100258.00;5051532;28;20035;-80
2023/08/03 09:31:21;;;;;;;27.00;9.70;;;;;;;26.88;69.89;100237.34;5052234;28;20029;-80
2023/08/03 09:33:57;;;;;;;18.77;8.45;;;;;;;26.80;64.82;100257.06;5050327;28;20407;-81
2023/08/03 09:36:23;;;;;;;11.93;6.13;;;;;;;26.50;64.18;100226.78;5050455;28;20135;-81
2023/08/03 09:38:48;;;;;;;8.63;6.22;;;;;;;26.36;67.64;100216.22;5050703;28;20044;-81
2023/08/03 09:41:14;;;;;;;15.43;7.80;;;;;;;26.55;71.40;100252.78;5051203;28;20484;-80
2023/08/03 09:43:40;;;;;;;20.40;8.82;;;;;;;26.44;72.72;100252.56;5051973;28;20488;-84
2023/08/03 09:46:06;;;;;;;15.82;7.22;;;;;;;26.52;73.41;100251.34;5051124;28;20025;-81
2023/08/03 09:48:32;;;;;;;19.80;8.60;;;;;;;26.63;75.38;100263.50;5051486;28;20381;-81
2023/08/03 09:50:59;;;;;;;22.65;8.50;;;;;;;26.63;74.98;100256.06;5051832;28;20021;-81
2023/08/03 09:53:28;;;;;;;18.92;8.57;;;;;;;26.71;75.18;100258.47;5051513;28;20029;-83
2023/08/03 09:56:01;;;;;;;16.02;7.57;;;;;;;26.65;73.13;100247.53;5051182;28;20106;-80
2023/08/03 09:58:35;;;;;;;38.20;9.50;;;;;;;26.63;74.12;100252.47;5051259;28;20503;-81
2023/08/03 10:01:03;;;;;;;10.75;8.30;;;;;;;26.60;74.91;100237.22;5051184;28;20404;-80
2023/08/03 10:03:31;;;;;;;29.35;8.60;;;;;;;26.77;76.17;100246.47;5050919;28;20032;-81
2023/08/03 10:06:27;;;;;;;19.52;9.13;;;;;;;26.91;77.47;100253.44;5050594;28;20033;-80
2023/08/03 10:09:05;;;;;;;30.35;9.63;;;;;;;27.06;74.65;100244.69;5048124;28;20047;-81
2023/08/03 10:11:37;;;;;;;20.45;8.10;;;;;;;27.14;73.60;100232.44;5048308;28;20035;-81
2023/08/03 10:14:04;;;;;;;17.95;7.72;;;;;;;27.33;71.66;100225.69;5051018;28;20089;-80
2023/08/03 10:16:33;;;;;;;21.00;9.20;;;;;;;27.44;71.87;100233.13;5050108;28;20040;-77
2023/08/03 10:19:01;;;;;;;17.85;8.00;;;;;;;27.71;72.26;100248.03;5030981;28;20115;-80
2023/08/03 10:21:27;;;;;;;17.73;8.45;;;;;;;27.79;70.86;100242.16;5048227;28;20492;-82
2023/08/03 10:24:10;;;;;;;18.17;7.88;;;;;;;27.79;69.24;100228.31;5048119;28;20078;-80
2023/08/03 10:26:35;;;;;;;22.80;7.65;;;;;;;28.02;66.96;100235.66;5048334;28;20033;-80
2023/08/03 10:29:01;;;;;;;26.48;9.73;;;;;;;27.93;66.82;100226.94;5048686;28;20478;-83
2023/08/03 10:31:28;;;;;;;13.68;7.20;;;;;;;28.00;67.53;100222.09;5049346;28;20036;-84
2023/08/03 10:33:54;;;;;;;31.00;8.02;;;;;;;28.16;67.76;100228.78;5055073;28;20066;-84
2023/08/03 10:36:31;;;;;;;32.83;7.43;;;;;;;28.22;68.93;100229.69;5063340;28;20029;-82
2023/08/03 10:38:59;;;;;;;23.38;8.30;;;;;;;28.37;69.22;100225.28;5047596;28;20123;-81
2023/08/03 10:41:30;;;;;;;39.42;8.32;;;;;;;28.44;67.31;100219.56;5065071;28;20187;-82
2023/08/03 10:44:09;;;;;;;17.15;7.95;;;;;;;28.46;67.78;100207.16;5048467;28;20033;-81
2023/08/03 10:47:00;;;;;;;24.23;8.30;;;;;;;28.62;67.97;100227.63;5050381;28;20040;-83
2023/08/03 10:49:27;;;;;;;46.47;12.20;;;;;;;28.68;68.20;100223.88;5027857;28;20128;-80
2023/08/03 10:51:54;;;;;;;15.48;7.38;;;;;;;28.62;68.51;100220.13;5028043;28;20814;-83
2023/08/03 10:54:30;;;;;;;22.08;8.80;;;;;;;28.68;67.12;100221.09;5028077;28;20511;-81
2023/08/03 10:57:07;;;;;;;21.42;7.82;;;;;;;28.74;67.92;100213.72;5011592;28;20040;-81
2023/08/03 10:59:39;;;;;;;21.90;7.82;;;;;;;28.74;69.22;100220.09;5028239;28;20076;-80
2023/08/03 11:02:09;;;;;;;10.48;7.22;;;;;;;28.66;69.76;100195.59;5028172;28;20443;-81
2023/08/03 11:04:35;;;;;;;14.73;7.57;;;;;;;28.82;69.24;100194.75;5028137;28;20033;-81
2023/08/03 11:07:02;;;;;;;88.03;18.73;;;;;;;29.04;69.89;100215.00;5028058;28;20048;-80
2023/08/03 11:09:29;;;;;;;16.45;8.05;;;;;;;29.10;70.11;100225.06;5028117;28;20029;-80
2023/08/03 11:11:57;;;;;;;25.10;8.63;;;;;;;29.07;70.45;100214.50;5027857;28;20030;-81
2023/08/03 11:14:23;;;;;;;10.10;7.90;;;;;;;29.04;70.01;100203.94;5027888;28;20574;-82
2023/08/03 11:16:48;;;;;;;20.25;8.73;;;;;;;29.23;68.96;100214.69;5027969;28;20029;-83
2023/08/03 11:19:14;;;;;;;28.77;9.30;;;;;;;29.29;68.90;100205.38;5027856;28;20527;-80
2023/08/03 11:21:42;;;;;;;26.40;9.40;;;;;;;29.38;68.00;100214.94;5027730;28;20025;-80
2023/08/03 11:24:07;;;;;;;20.92;8.30;;;;;;;29.42;67.72;100204.97;5028103;28;20033;-82
2023/08/03 11:26:33;;;;;;;10.32;7.70;;;;;;;29.56;67.34;100209.91;5042002;28;20044;-81
2023/08/03 11:28:58;;;;;;;26.60;7.75;;;;;;;29.60;65.73;100208.25;5050521;28;20033;-81
2023/08/03 11:31:24;;;;;;;21.83;7.65;;;;;;;29.68;65.00;100216.13;5050776;28;20059;-85
2023/08/03 11:33:53;;;;;;;15.90;7.97;;;;;;;29.62;63.41;100194.16;5050406;28;20047;-83
2023/08/03 11:36:22;;;;;;;9.68;7.88;;;;;;;29.64;62.44;100175.31;5050584;28;20029;-84
2023/08/03 11:38:49;;;;;;;17.00;8.05;;;;;;;29.66;62.22;100189.78;5050209;28;20033;-83
2023/08/03 11:41:23;;;;;;;14.07;6.30;;;;;;;29.44;59.23;100192.56;5050241;28;20021;-82
2023/08/03 11:43:49;;;;;;;16.55;8.63;;;;;;;29.21;62.89;100206.63;5048996;28;20029;-83
2023/08/03 11:46:15;;;;;;;15.70;7.70;;;;;;;29.05;62.58;100200.03;5048819;28;20108;-82
2023/08/03 11:48:45;;;;;;;9.80;6.47;;;;;;;29.10;63.63;100211.22;5050983;28;20041;-82
2023/08/03 11:51:11;;;;;;;22.35;7.15;;;;;;;29.17;61.62;100198.00;5050174;28;20108;-83
2023/08/03 11:53:40;;;;;;;12.70;6.95;;;;;;;29.27;61.80;100219.47;5050140;28;20129;-82
2023/08/03 11:56:07;;;;;;;14.05;6.55;;;;;;;29.31;62.01;100197.66;5048704;28;20102;-83
2023/08/03 11:58:37;;;;;;;17.92;8.23;;;;;;;29.22;61.85;100180.59;5049899;28;20108;-88
2023/08/03 12:01:04;;;;;;;20.70;6.78;;;;;;;29.25;63.40;100209.75;5050566;28;20025;-81